createdAt,value
2018-01-28T00:01:32.874Z,5.40
2018-01-28T00:03:59.454Z,5.40
2018-01-28T00:06:25.708Z,5.40
2018-01-28T00:08:51.943Z,5.40
2018-01-28T00:11:18.303Z,5.40
2018-01-28T00:13:44.583Z,5.40
2018-01-28T00:16:10.904Z,5.40
2018-01-28T00:18:38.328Z,5.40
2018-01-28T00:21:04.886Z,5.40
2018-01-28T00:23:32.778Z,5.40
2018-01-28T00:25:59.248Z,5.40
2018-01-28T00:28:25.665Z,5.40
2018-01-28T00:30:51.895Z,5.30
2018-01-28T00:33:18.127Z,5.30
2018-01-28T00:35:46.108Z,5.30
2018-01-28T00:38:12.709Z,5.30
2018-01-28T00:40:38.978Z,5.40
2018-01-28T00:43:05.248Z,5.30
2018-01-28T00:45:31.699Z,5.40
2018-01-28T00:47:57.959Z,5.30
2018-01-28T00:50:24.212Z,5.40
2018-01-28T00:52:50.489Z,5.40
2018-01-28T00:55:16.848Z,5.40
2018-01-28T00:57:43.333Z,5.40
2018-01-28T01:00:09.592Z,5.40
2018-01-28T01:02:36.437Z,5.40
2018-01-28T01:05:03.600Z,5.30
2018-01-28T01:07:29.972Z,5.40
2018-01-28T01:09:56.456Z,5.40
2018-01-28T01:12:22.708Z,5.40
2018-01-28T01:14:48.964Z,5.40
2018-01-28T01:17:15.536Z,5.40
2018-01-28T01:19:41.843Z,5.40
2018-01-28T01:22:08.807Z,5.40
2018-01-28T01:24:35.237Z,5.40
2018-01-28T01:27:01.519Z,5.40
2018-01-28T01:29:27.763Z,5.40
2018-01-28T01:31:53.983Z,5.50
2018-01-28T01:34:20.406Z,5.50
2018-01-28T01:36:47.438Z,5.50
2018-01-28T01:39:13.759Z,5.50
2018-01-28T01:41:39.985Z,5.50
2018-01-28T01:44:06.488Z,5.50
2018-01-28T01:46:32.734Z,5.50
2018-01-28T01:48:59.774Z,5.60
2018-01-28T01:51:26.194Z,5.50
2018-01-28T01:53:52.443Z,5.60
2018-01-28T01:56:19.701Z,5.60
2018-01-28T01:58:45.920Z,5.60
2018-01-28T02:01:12.384Z,5.60
2018-01-28T02:03:38.572Z,5.60
2018-01-28T02:06:05.549Z,5.60
2018-01-28T02:08:32.495Z,5.60
2018-01-28T02:11:00.717Z,5.60
2018-01-28T02:13:27.374Z,5.60
2018-01-28T02:15:53.580Z,5.60
2018-01-28T02:18:19.804Z,5.60
2018-01-28T02:20:46.913Z,5.60
2018-01-28T02:23:13.167Z,5.60
2018-01-28T02:25:39.348Z,5.70
2018-01-28T02:28:07.152Z,5.70
2018-01-28T02:30:33.454Z,5.60
2018-01-28T02:32:59.785Z,5.70
2018-01-28T02:35:25.996Z,5.70
2018-01-28T02:37:52.444Z,5.70
2018-01-28T02:40:18.705Z,5.70
2018-01-28T02:42:44.969Z,5.70
2018-01-28T02:45:11.352Z,5.70
2018-01-28T02:47:37.583Z,5.70
2018-01-28T02:50:04.548Z,5.70
2018-01-28T02:52:31.032Z,5.70
2018-01-28T02:54:57.240Z,5.70
2018-01-28T02:57:23.489Z,5.70
2018-01-28T02:59:49.865Z,5.70
2018-01-28T03:02:16.076Z,5.70
2018-01-28T03:04:42.296Z,5.70
2018-01-28T03:07:08.501Z,5.70
2018-01-28T03:09:34.809Z,5.80
2018-01-28T03:12:01.033Z,5.70
2018-01-28T03:14:27.329Z,5.70
2018-01-28T03:16:53.623Z,5.70
2018-01-28T03:19:19.884Z,5.70
2018-01-28T03:21:46.147Z,5.70
2018-01-28T03:24:12.446Z,5.80
2018-01-28T03:26:38.718Z,5.70
2018-01-28T03:29:04.930Z,5.70
2018-01-28T03:31:31.316Z,5.80
2018-01-28T03:33:57.578Z,5.80
2018-01-28T03:36:23.867Z,5.70
2018-01-28T03:38:50.740Z,5.80
2018-01-28T03:41:17.361Z,5.80
2018-01-28T03:43:43.559Z,5.80
2018-01-28T03:46:09.877Z,5.80
2018-01-28T03:48:36.089Z,5.80
2018-01-28T03:51:02.376Z,5.90
2018-01-28T03:53:28.735Z,5.80
2018-01-28T03:55:54.979Z,5.80
2018-01-28T03:58:21.197Z,5.90
2018-01-28T04:00:47.475Z,5.90
2018-01-28T04:03:14.567Z,5.90
2018-01-28T04:05:40.827Z,5.90
2018-01-28T04:08:07.032Z,5.90
2018-01-28T04:10:33.389Z,5.90
2018-01-28T04:12:59.600Z,5.90
2018-01-28T04:15:25.820Z,5.90
2018-01-28T04:17:52.376Z,5.90
2018-01-28T04:20:18.786Z,5.90
2018-01-28T04:22:45.061Z,5.90
2018-01-28T04:25:19.172Z,5.90
2018-01-28T04:27:45.518Z,5.80
2018-01-28T04:30:15.768Z,5.90
2018-01-28T04:32:42.895Z,5.80
2018-01-28T04:35:09.189Z,5.80
2018-01-28T04:37:36.314Z,5.90
2018-01-28T04:40:03.298Z,5.80
2018-01-28T04:42:29.580Z,5.80
2018-01-28T04:44:55.763Z,5.80
2018-01-28T04:47:22.020Z,5.80
2018-01-28T04:49:48.243Z,5.80
2018-01-28T04:52:14.464Z,5.80
2018-01-28T04:54:40.695Z,5.80
2018-01-28T04:57:07.017Z,5.60
2018-01-28T04:59:33.224Z,5.60
2018-01-28T05:02:00.440Z,5.60
2018-01-28T05:04:26.709Z,5.50
2018-01-28T05:06:53.004Z,5.40
2018-01-28T05:09:27.002Z,5.40
2018-01-28T05:11:53.333Z,5.30
2018-01-28T05:14:19.596Z,5.30
2018-01-28T05:16:45.879Z,5.30
2018-01-28T05:19:12.471Z,5.30
2018-01-28T05:21:39.182Z,5.30
2018-01-28T05:24:05.438Z,5.30
2018-01-28T05:26:31.829Z,5.30
2018-01-28T05:29:00.001Z,5.20
2018-01-28T05:31:26.413Z,5.20
2018-01-28T05:33:52.640Z,5.30
2018-01-28T05:36:19.021Z,5.20
2018-01-28T05:38:45.474Z,5.20
2018-01-28T05:41:11.733Z,5.20
2018-01-28T05:43:38.199Z,5.20
2018-01-28T05:46:04.664Z,5.10
2018-01-28T05:48:30.873Z,5.10
2018-01-28T05:50:57.847Z,5.10
2018-01-28T05:53:24.091Z,5.20
2018-01-28T05:55:50.419Z,5.10
2018-01-28T05:58:16.642Z,5.10
2018-01-28T06:00:42.861Z,5.10
2018-01-28T06:03:09.240Z,5.10
2018-01-28T06:05:36.243Z,5.10
2018-01-28T06:08:02.488Z,5.10
2018-01-28T06:10:28.956Z,5.10
2018-01-28T06:12:55.131Z,5.10
2018-01-28T06:15:22.143Z,5.20
2018-01-28T06:17:49.675Z,5.10
2018-01-28T06:20:17.029Z,5.20
2018-01-28T06:22:44.168Z,5.20
2018-01-28T06:25:10.457Z,5.20
2018-01-28T06:27:36.695Z,5.20
2018-01-28T06:30:03.715Z,5.20
2018-01-28T06:32:29.936Z,5.20
2018-01-28T06:34:56.199Z,5.20
2018-01-28T06:37:22.474Z,5.30
2018-01-28T06:39:49.831Z,5.30
2018-01-28T06:42:16.795Z,5.30
2018-01-28T06:44:43.025Z,5.30
2018-01-28T06:47:09.985Z,5.40
2018-01-28T06:49:37.209Z,5.30
2018-01-28T06:52:03.440Z,5.40
2018-01-28T06:54:29.657Z,5.30
2018-01-28T06:56:56.110Z,5.40
2018-01-28T06:59:23.493Z,5.40
2018-01-28T07:01:49.776Z,5.40
2018-01-28T07:04:16.732Z,5.40
2018-01-28T07:06:43.200Z,5.40
2018-01-28T07:09:09.474Z,5.40
2018-01-28T07:11:35.725Z,5.40
2018-01-28T07:14:02.144Z,5.50
2018-01-28T07:16:28.392Z,5.50
2018-01-28T07:18:54.883Z,5.50
2018-01-28T07:21:21.379Z,5.50
2018-01-28T07:23:47.607Z,5.50
2018-01-28T07:26:13.821Z,5.50
2018-01-28T07:28:40.147Z,5.60
2018-01-28T07:31:06.349Z,5.60
2018-01-28T07:33:32.580Z,5.60
2018-01-28T07:35:59.468Z,5.60
2018-01-28T07:38:25.804Z,5.70
2018-01-28T07:40:52.030Z,5.60
2018-01-28T07:43:18.251Z,5.60
2018-01-28T07:45:44.580Z,5.70
2018-01-28T07:48:10.781Z,5.70
2018-01-28T07:50:37.000Z,5.70
2018-01-28T07:53:03.323Z,5.70
2018-01-28T07:55:30.144Z,5.70
2018-01-28T07:57:56.404Z,5.70
2018-01-28T08:00:22.794Z,5.70
2018-01-28T08:02:49.240Z,5.80
2018-01-28T08:05:15.444Z,5.80
2018-01-28T08:07:42.559Z,5.80
2018-01-28T08:10:14.759Z,5.80
2018-01-28T08:12:42.740Z,5.90
2018-01-28T08:15:08.973Z,5.90
2018-01-28T08:17:35.415Z,5.90
2018-01-28T08:20:01.668Z,5.90
2018-01-28T08:22:27.908Z,6.00
2018-01-28T08:24:54.221Z,6.00
2018-01-28T08:27:26.325Z,6.00
2018-01-28T08:29:52.607Z,6.00
2018-01-28T08:32:19.518Z,6.00
2018-01-28T08:34:45.721Z,6.10
2018-01-28T08:37:11.939Z,6.10
2018-01-28T08:39:38.935Z,6.10
2018-01-28T08:42:06.336Z,6.10
2018-01-28T08:44:32.753Z,6.10
2018-01-28T08:46:59.232Z,6.20
2018-01-28T08:49:25.688Z,6.20
2018-01-28T08:51:52.700Z,6.20
2018-01-28T08:54:18.938Z,6.20
2018-01-28T08:56:46.202Z,6.30
2018-01-28T08:59:12.608Z,6.20
2018-01-28T09:01:39.564Z,6.20
2018-01-28T09:04:05.754Z,6.20
2018-01-28T09:06:32.028Z,6.20
2018-01-28T09:08:59.172Z,6.30
2018-01-28T09:11:25.756Z,6.20
2018-01-28T09:13:52.191Z,6.20
2018-01-28T09:16:18.729Z,6.20
2018-01-28T09:18:44.947Z,6.20
2018-01-28T09:21:11.928Z,6.20
2018-01-28T09:23:38.540Z,6.20
2018-01-28T09:26:04.920Z,6.20
2018-01-28T09:28:31.322Z,6.20
2018-01-28T09:30:57.817Z,6.20
2018-01-28T09:33:24.088Z,6.30
2018-01-28T09:35:51.016Z,6.40
2018-01-28T09:38:17.233Z,6.30
2018-01-28T09:40:43.651Z,6.40
2018-01-28T09:43:10.017Z,6.40
2018-01-28T09:45:36.240Z,6.50
2018-01-28T09:48:02.896Z,6.50
2018-01-28T09:50:29.104Z,6.60
2018-01-28T09:52:56.053Z,6.70
2018-01-28T09:55:23.045Z,6.70
2018-01-28T09:57:49.610Z,6.70
2018-01-28T10:00:21.841Z,6.80
2018-01-28T10:02:48.088Z,6.80
2018-01-28T10:05:20.378Z,6.80
2018-01-28T10:07:52.247Z,6.90
2018-01-28T10:10:19.324Z,6.90
2018-01-28T10:12:45.533Z,6.90
2018-01-28T10:15:11.789Z,7.00
2018-01-28T10:17:38.460Z,7.00
2018-01-28T10:20:04.696Z,7.00
2018-01-28T10:22:30.892Z,7.00
2018-01-28T10:27:42.244Z,7.10
2018-01-28T10:30:08.578Z,7.10
2018-01-28T10:32:34.758Z,7.10
2018-01-28T10:35:00.985Z,7.20
2018-01-28T10:37:29.045Z,7.20
2018-01-28T10:39:56.212Z,7.30
2018-01-28T10:42:24.710Z,7.20
2018-01-28T10:44:52.197Z,7.30
2018-01-28T10:47:19.401Z,7.40
2018-01-28T10:49:45.868Z,7.40
2018-01-28T10:52:12.108Z,7.50
2018-01-28T10:54:38.333Z,7.50
2018-01-28T10:57:04.600Z,7.60
2018-01-28T10:59:31.912Z,7.60
2018-01-28T11:01:58.257Z,7.70
2018-01-28T11:04:24.824Z,7.80
2018-01-28T11:06:51.057Z,7.80
2018-01-28T11:09:17.613Z,7.80
2018-01-28T11:11:45.769Z,7.80
2018-01-28T11:14:12.701Z,7.90
2018-01-28T11:16:38.937Z,7.90
2018-01-28T11:19:05.185Z,8.00
2018-01-28T11:21:32.736Z,8.10
2018-01-28T11:23:59.606Z,8.10
2018-01-28T11:26:25.897Z,8.10
2018-01-28T11:28:52.393Z,8.20
2018-01-28T11:31:18.587Z,8.20
2018-01-28T11:33:44.901Z,8.30
2018-01-28T11:36:11.861Z,8.30
2018-01-28T11:38:39.767Z,8.40
2018-01-28T11:41:05.960Z,8.30
2018-01-28T11:43:32.167Z,8.50
2018-01-28T11:45:58.396Z,8.60
2018-01-28T11:48:24.608Z,8.60
2018-01-28T11:50:51.554Z,8.60
2018-01-28T11:53:17.764Z,8.60
2018-01-28T11:55:45.207Z,8.60
2018-01-28T11:58:11.466Z,8.60
2018-01-28T12:00:37.644Z,8.70
2018-01-28T12:03:04.879Z,8.80
2018-01-28T12:05:31.375Z,8.60
2018-01-28T12:07:58.392Z,8.70
2018-01-28T12:10:25.555Z,8.70
2018-01-28T12:12:51.765Z,8.80
2018-01-28T12:15:18.097Z,8.80
2018-01-28T12:17:44.386Z,8.80
2018-01-28T12:20:10.793Z,8.70
2018-01-28T12:22:38.251Z,8.70
2018-01-28T12:25:04.519Z,8.70
2018-01-28T12:27:30.744Z,8.70
2018-01-28T12:29:56.976Z,8.70
2018-01-28T12:32:23.206Z,8.70
2018-01-28T12:34:50.204Z,8.70
2018-01-28T12:37:16.386Z,8.70
2018-01-28T12:39:42.768Z,8.70
2018-01-28T12:42:08.943Z,8.80
2018-01-28T12:44:35.156Z,8.70
2018-01-28T12:47:01.476Z,8.70
2018-01-28T12:49:28.407Z,8.90
2018-01-28T12:51:54.617Z,8.90
2018-01-28T12:54:21.046Z,8.80
2018-01-28T12:56:47.233Z,8.80
2018-01-28T12:59:13.422Z,8.80
2018-01-28T13:01:40.179Z,8.80
2018-01-28T13:04:06.375Z,8.80
2018-01-28T13:06:32.537Z,8.90
2018-01-28T13:08:58.881Z,8.90
2018-01-28T13:11:25.068Z,9.00
2018-01-28T13:13:51.228Z,9.00
2018-01-28T13:16:17.647Z,9.00
2018-01-28T13:18:43.899Z,9.00
2018-01-28T13:21:10.105Z,9.00
2018-01-28T13:26:08.569Z,9.10
2018-01-28T13:28:35.123Z,9.10
2018-01-28T13:31:03.037Z,9.20
2018-01-28T13:33:30.517Z,9.20
2018-01-28T13:35:57.743Z,9.20
2018-01-28T13:38:24.039Z,9.10
2018-01-28T13:40:50.328Z,9.20
2018-01-28T13:43:17.432Z,9.10
2018-01-28T13:45:44.354Z,9.00
2018-01-28T13:48:10.571Z,9.00
2018-01-28T13:50:36.771Z,9.00
2018-01-28T13:53:03.070Z,8.90
2018-01-28T13:55:29.301Z,8.90
2018-01-28T13:57:55.530Z,8.90
2018-01-28T14:00:21.855Z,8.90
2018-01-28T14:02:48.059Z,8.90
2018-01-28T14:05:14.985Z,9.00
2018-01-28T14:07:41.339Z,8.90
2018-01-28T14:10:07.526Z,9.10
2018-01-28T14:12:33.802Z,9.10
2018-01-28T14:15:00.252Z,9.10
2018-01-28T14:17:26.495Z,9.10
2018-01-28T14:19:52.790Z,9.10
2018-01-28T14:22:19.075Z,9.10
2018-01-28T14:24:45.267Z,9.10
2018-01-28T14:27:12.319Z,9.00
2018-01-28T14:29:38.652Z,9.00
2018-01-28T14:32:05.026Z,8.90
2018-01-28T14:34:31.308Z,8.90
2018-01-28T14:36:57.513Z,8.80
2018-01-28T14:39:24.390Z,8.90
2018-01-28T14:41:50.578Z,8.90
2018-01-28T14:44:16.808Z,8.90
2018-01-28T14:46:43.192Z,8.80
2018-01-28T14:49:09.395Z,8.80
2018-01-28T14:51:35.628Z,8.80
2018-01-28T14:54:01.985Z,8.80
2018-01-28T14:56:28.222Z,8.70
2018-01-28T14:58:55.189Z,8.60
2018-01-28T15:01:21.468Z,8.60
2018-01-28T15:03:47.794Z,8.60
2018-01-28T15:06:14.019Z,8.60
2018-01-28T15:08:40.221Z,8.60
2018-01-28T15:11:06.808Z,8.60
2018-01-28T15:13:32.980Z,8.50
2018-01-28T15:15:59.195Z,8.50
2018-01-28T15:18:26.305Z,8.40
2018-01-28T15:20:52.518Z,8.40
2018-01-28T15:23:18.792Z,8.40
2018-01-28T15:25:45.111Z,8.50
2018-01-28T15:28:11.316Z,8.40
2018-01-28T15:30:38.339Z,8.40
2018-01-28T15:33:04.511Z,8.40
2018-01-28T15:35:30.877Z,8.40
2018-01-28T15:37:57.097Z,8.50
2018-01-28T15:40:23.305Z,8.40
2018-01-28T15:42:49.742Z,8.40
2018-01-28T15:45:15.947Z,8.40
2018-01-28T15:47:42.192Z,8.30
2018-01-28T15:50:08.561Z,8.40
2018-01-28T15:52:34.790Z,8.30
2018-01-28T15:55:00.988Z,8.30
2018-01-28T15:57:28.080Z,8.30
2018-01-28T15:59:54.315Z,8.30
2018-01-28T16:02:20.596Z,8.30
2018-01-28T16:04:55.319Z,8.20
2018-01-28T16:07:21.856Z,8.20
2018-01-28T16:09:48.059Z,8.10
2018-01-28T16:12:14.285Z,8.10
2018-01-28T16:14:40.616Z,8.10
2018-01-28T16:17:06.892Z,8.00
2018-01-28T16:19:33.135Z,8.00
2018-01-28T16:22:00.044Z,7.90
2018-01-28T16:24:26.503Z,7.90
2018-01-28T16:26:52.879Z,7.90
2018-01-28T16:29:19.107Z,7.90
2018-01-28T16:31:45.337Z,7.90
2018-01-28T16:34:14.769Z,7.90
2018-01-28T16:36:41.955Z,7.90
2018-01-28T16:39:10.512Z,7.80
2018-01-28T16:41:37.049Z,7.80
2018-01-28T16:44:04.589Z,7.80
2018-01-28T16:46:31.485Z,7.80
2018-01-28T16:48:58.484Z,7.80
2018-01-28T16:51:24.698Z,7.80
2018-01-28T16:53:50.897Z,7.80
2018-01-28T16:56:17.226Z,7.90
2018-01-28T16:58:43.420Z,7.90
2018-01-28T17:01:10.469Z,7.90
2018-01-28T17:03:36.962Z,7.90
2018-01-28T17:06:03.220Z,8.00
2018-01-28T17:08:29.508Z,8.00
2018-01-28T17:10:56.891Z,8.00
2018-01-28T17:13:23.233Z,8.10
2018-01-28T17:15:50.435Z,8.10
2018-01-28T17:18:16.666Z,8.10
2018-01-28T17:20:43.811Z,8.20
2018-01-28T17:23:11.202Z,8.20
2018-01-28T17:25:37.453Z,8.20
2018-01-28T17:28:03.654Z,8.20
2018-01-28T17:30:30.700Z,8.20
2018-01-28T17:32:57.204Z,8.20
2018-01-28T17:35:29.553Z,8.20
2018-01-28T17:37:56.503Z,8.20
2018-01-28T17:40:22.905Z,8.30
2018-01-28T17:42:50.300Z,8.30
2018-01-28T17:45:16.605Z,8.30
2018-01-28T17:47:42.860Z,8.30
2018-01-28T17:50:09.136Z,8.30
2018-01-28T17:55:07.904Z,8.30
2018-01-28T17:57:34.316Z,8.30
2018-01-28T18:00:05.775Z,8.30
2018-01-28T18:02:31.984Z,8.30
2018-01-28T18:04:58.251Z,8.30
2018-01-28T18:07:24.636Z,8.30
2018-01-28T18:09:52.594Z,8.20
2018-01-28T18:12:18.876Z,8.20
2018-01-28T18:14:45.111Z,8.30
2018-01-28T18:17:11.372Z,8.20
2018-01-28T18:19:38.540Z,8.20
2018-01-28T18:22:08.562Z,8.20
2018-01-28T18:24:35.930Z,8.20
2018-01-28T18:27:02.617Z,8.20
2018-01-28T18:29:30.120Z,8.20
2018-01-28T18:31:56.397Z,8.20
2018-01-28T18:34:22.644Z,8.20
2018-01-28T18:36:48.901Z,8.20
2018-01-28T18:39:15.141Z,8.20
2018-01-28T18:41:41.347Z,8.30
2018-01-28T18:44:07.560Z,8.20
2018-01-28T18:46:33.912Z,8.20
2018-01-28T18:49:00.076Z,8.20
2018-01-28T18:51:26.259Z,8.20
2018-01-28T18:53:52.633Z,8.20
2018-01-28T18:56:18.807Z,8.20
2018-01-28T18:58:45.096Z,8.30
2018-01-28T19:01:11.290Z,8.20
2018-01-28T19:03:37.480Z,8.20
2018-01-28T19:06:03.655Z,8.20
2018-01-28T19:08:30.596Z,8.20
2018-01-28T19:10:57.516Z,8.20
2018-01-28T19:13:23.691Z,8.20
2018-01-28T19:15:49.877Z,8.20
2018-01-28T19:18:16.259Z,8.20
2018-01-28T19:20:42.470Z,8.20
2018-01-28T19:23:08.642Z,8.20
2018-01-28T19:25:34.912Z,8.20
2018-01-28T19:28:01.863Z,8.30
2018-01-28T19:30:28.088Z,8.30
2018-01-28T19:32:54.303Z,8.30
2018-01-28T19:35:20.466Z,8.40
2018-01-28T19:37:46.638Z,8.60
2018-01-28T19:40:13.527Z,8.50
2018-01-28T19:42:39.863Z,8.50
2018-01-28T19:45:06.052Z,8.60
2018-01-28T19:47:32.220Z,8.50
2018-01-28T19:49:59.324Z,8.60
2018-01-28T19:52:25.479Z,8.60
2018-01-28T19:54:51.764Z,8.70
2018-01-28T19:57:18.183Z,8.60
2018-01-28T19:59:44.385Z,8.60
2018-01-28T20:02:10.665Z,8.60
2018-01-28T20:04:37.028Z,8.70
2018-01-28T20:07:03.229Z,8.60
2018-01-28T20:09:29.444Z,8.60
2018-01-28T20:11:55.934Z,8.60
2018-01-28T20:14:23.256Z,8.60
2018-01-28T20:16:49.452Z,8.60
2018-01-28T20:19:15.665Z,8.60
2018-01-28T20:21:42.085Z,8.60
2018-01-28T20:24:08.404Z,8.60
2018-01-28T20:26:34.642Z,8.60
2018-01-28T20:29:01.035Z,8.60
2018-01-28T20:31:27.612Z,8.60
2018-01-28T20:33:53.835Z,8.60
2018-01-28T20:36:20.227Z,8.60
2018-01-28T20:38:46.440Z,8.60
2018-01-28T20:41:12.663Z,8.70
2018-01-28T20:43:39.000Z,8.70
2018-01-28T20:46:05.239Z,8.70
2018-01-28T20:48:31.471Z,8.70
2018-01-28T20:50:57.888Z,8.70
2018-01-28T20:53:24.169Z,8.70
2018-01-28T20:55:50.453Z,8.60
2018-01-28T20:58:16.664Z,8.60
2018-01-28T21:00:42.984Z,8.60
2018-01-28T21:03:09.365Z,8.60
2018-01-28T21:05:35.688Z,8.60
2018-01-28T21:08:02.312Z,8.60
2018-01-28T21:10:32.498Z,8.60
2018-01-28T21:12:59.273Z,8.60
2018-01-28T21:15:25.462Z,8.60
2018-01-28T21:17:51.760Z,8.60
2018-01-28T21:20:18.243Z,8.60
2018-01-28T21:22:46.731Z,8.60
2018-01-28T21:25:13.116Z,8.60
2018-01-28T21:27:41.356Z,8.60
2018-01-28T21:30:07.794Z,8.60
2018-01-28T21:32:34.205Z,8.60
2018-01-28T21:35:01.288Z,8.60
2018-01-28T21:37:27.562Z,8.60
2018-01-28T21:39:54.150Z,8.70
2018-01-28T21:42:21.237Z,8.80
2018-01-28T21:44:47.713Z,8.80
2018-01-28T21:47:14.392Z,8.70
2018-01-28T21:49:40.756Z,8.70
2018-01-28T21:52:07.067Z,8.70
2018-01-28T21:54:33.400Z,8.70
2018-01-28T21:56:59.830Z,8.70
2018-01-28T21:59:26.125Z,8.60
2018-01-28T22:02:00.797Z,8.60
2018-01-28T22:04:28.421Z,8.60
2018-01-28T22:06:55.421Z,8.60
2018-01-28T22:09:27.592Z,8.60
2018-01-28T22:11:54.128Z,8.60
2018-01-28T22:14:20.344Z,8.60
2018-01-28T22:16:46.856Z,8.60
2018-01-28T22:19:13.112Z,8.60
2018-01-28T22:21:39.365Z,8.60
2018-01-28T22:24:06.892Z,8.60
2018-01-28T22:26:33.106Z,8.60
2018-01-28T22:28:59.720Z,8.60
2018-01-28T22:31:26.279Z,8.60
2018-01-28T22:33:53.560Z,8.60
2018-01-28T22:36:19.770Z,8.50
2018-01-28T22:38:45.996Z,8.60
2018-01-28T22:41:12.256Z,8.60
2018-01-28T22:43:38.505Z,8.60
2018-01-28T22:46:04.764Z,8.60
2018-01-28T22:48:31.073Z,8.60
2018-01-28T22:50:57.369Z,8.60
2018-01-28T22:53:23.580Z,8.60
2018-01-28T22:55:49.959Z,8.60
2018-01-28T22:58:17.260Z,8.60
2018-01-28T23:00:43.485Z,8.60
2018-01-28T23:03:09.690Z,8.50
2018-01-28T23:05:35.991Z,8.50
2018-01-28T23:08:02.201Z,8.60
2018-01-28T23:10:29.148Z,8.60
2018-01-28T23:12:55.624Z,8.60
2018-01-28T23:15:21.807Z,8.60
2018-01-28T23:17:48.062Z,8.60
2018-01-28T23:20:14.395Z,8.60
2018-01-28T23:22:40.631Z,8.60
2018-01-28T23:25:06.822Z,8.60
2018-01-28T23:27:33.861Z,8.60
2018-01-28T23:30:01.182Z,8.60
2018-01-28T23:32:27.376Z,8.60
2018-01-28T23:34:54.319Z,8.60
2018-01-28T23:37:21.567Z,8.60
2018-01-28T23:39:48.032Z,8.60
2018-01-28T23:42:14.293Z,8.60
2018-01-28T23:44:40.495Z,8.60
2018-01-28T23:47:07.805Z,8.70
2018-01-28T23:49:34.065Z,8.60
2018-01-28T23:52:00.290Z,8.60
2018-01-28T23:54:27.261Z,8.60
2018-01-28T23:56:53.739Z,8.60
2018-01-28T23:59:19.997Z,8.60
